createdAt,value
2022-08-28T00:00:34.444Z,7.10
2022-08-28T00:01:34.438Z,7.70
2022-08-28T00:02:34.521Z,6.60
2022-08-28T00:03:34.423Z,9.50
2022-08-28T00:04:34.499Z,6.90
2022-08-28T00:05:34.411Z,7.90
2022-08-28T00:06:34.401Z,7.80
2022-08-28T00:07:34.395Z,7.70
2022-08-28T00:08:34.386Z,7.90
2022-08-28T00:09:34.381Z,7.20
2022-08-28T00:10:34.372Z,7.00
2022-08-28T00:11:34.369Z,8.20
2022-08-28T00:12:34.360Z,8.10
2022-08-28T00:13:34.357Z,7.50
2022-08-28T00:14:34.344Z,7.70
2022-08-28T00:15:34.338Z,7.80
2022-08-28T00:16:34.371Z,7.20
2022-08-28T00:17:34.327Z,7.60
2022-08-28T00:18:34.324Z,7.20
2022-08-28T00:19:38.349Z,7.60
2022-08-28T00:20:34.303Z,7.50
2022-08-28T00:21:34.397Z,5.90
2022-08-28T00:22:34.286Z,6.30
2022-08-28T00:23:42.902Z,7.10
2022-08-28T00:24:34.273Z,7.80
2022-08-28T00:25:34.268Z,7.90
2022-08-28T00:26:34.260Z,6.60
2022-08-28T00:27:34.259Z,7.00
2022-08-28T00:28:34.246Z,8.00
2022-08-28T00:29:34.240Z,7.50
2022-08-28T00:30:34.231Z,6.90
2022-08-28T00:31:34.366Z,7.60
2022-08-28T00:32:34.218Z,7.40
2022-08-28T00:33:34.218Z,7.30
2022-08-28T00:34:34.202Z,8.00
2022-08-28T00:35:34.196Z,5.60
2022-08-28T00:36:34.188Z,6.30
2022-08-28T00:37:34.183Z,7.10
2022-08-28T00:38:34.173Z,7.00
2022-08-28T00:39:34.168Z,7.80
2022-08-28T00:40:34.241Z,8.20
2022-08-28T00:41:34.155Z,7.40
2022-08-28T00:42:34.143Z,8.70
2022-08-28T00:43:34.139Z,9.30
2022-08-28T00:44:34.130Z,9.80
2022-08-28T00:45:39.364Z,9.10
2022-08-28T00:46:34.208Z,8.90
2022-08-28T00:47:34.112Z,7.90
2022-08-28T00:48:34.103Z,9.80
2022-08-28T00:49:34.097Z,7.90
2022-08-28T00:50:34.088Z,9.50
2022-08-28T00:51:34.085Z,12.30
2022-08-28T00:52:34.072Z,10.10
2022-08-28T00:53:34.071Z,9.10
2022-08-28T00:54:34.062Z,8.80
2022-08-28T00:55:34.053Z,9.60
2022-08-28T00:56:34.043Z,9.20
2022-08-28T00:57:34.038Z,8.70
2022-08-28T00:58:34.029Z,10.20
2022-08-28T00:59:34.026Z,9.10
2022-08-28T01:00:34.015Z,9.80
2022-08-28T01:01:34.032Z,8.30
2022-08-28T01:02:34.055Z,9.10
2022-08-28T01:03:33.993Z,8.30
2022-08-28T01:04:33.987Z,12.30
2022-08-28T01:05:33.977Z,10.50
2022-08-28T01:06:33.971Z,9.20
2022-08-28T01:07:33.963Z,9.90
2022-08-28T01:08:33.957Z,10.80
2022-08-28T01:09:34.048Z,9.00
2022-08-28T01:10:33.943Z,10.80
2022-08-28T01:11:33.935Z,9.00
2022-08-28T01:12:33.928Z,9.00
2022-08-28T01:13:33.920Z,8.90
2022-08-28T01:14:33.913Z,12.50
2022-08-28T01:15:33.967Z,9.90
2022-08-28T01:16:34.427Z,10.00
2022-08-28T01:17:33.890Z,8.50
2022-08-28T01:18:33.884Z,10.30
2022-08-28T01:19:33.876Z,8.20
2022-08-28T01:20:33.869Z,9.60
2022-08-28T01:21:33.863Z,10.20
2022-08-28T01:22:33.855Z,9.10
2022-08-28T01:23:33.847Z,9.10
2022-08-28T01:24:33.842Z,11.30
2022-08-28T01:25:33.832Z,8.40
2022-08-28T01:26:33.829Z,10.00
2022-08-28T01:27:33.816Z,9.90
2022-08-28T01:28:33.820Z,10.50
2022-08-28T01:29:33.807Z,9.90
2022-08-28T01:30:33.798Z,10.70
2022-08-28T01:31:33.876Z,11.70
2022-08-28T01:32:33.883Z,9.90
2022-08-28T01:33:33.780Z,10.30
2022-08-28T01:34:33.767Z,9.90
2022-08-28T01:35:33.760Z,9.80
2022-08-28T01:36:33.758Z,9.00
2022-08-28T01:37:33.745Z,10.60
2022-08-28T01:38:33.740Z,9.70
2022-08-28T01:39:33.731Z,10.80
2022-08-28T01:40:33.809Z,10.90
2022-08-28T01:41:33.719Z,9.90
2022-08-28T01:42:33.711Z,10.90
2022-08-28T01:43:33.702Z,11.40
2022-08-28T01:44:33.698Z,12.80
2022-08-28T01:45:33.687Z,10.50
2022-08-28T01:46:33.723Z,12.40
2022-08-28T01:47:33.673Z,11.60
2022-08-28T01:48:33.666Z,12.90
2022-08-28T01:49:33.674Z,12.90
2022-08-28T01:50:33.655Z,11.40
2022-08-28T01:51:35.236Z,10.60
2022-08-28T01:52:33.638Z,10.60
2022-08-28T01:53:33.628Z,11.00
2022-08-28T01:54:33.623Z,9.90
2022-08-28T01:55:33.614Z,13.30
2022-08-28T01:56:33.613Z,9.30
2022-08-28T01:57:33.601Z,11.20
2022-08-28T01:58:37.882Z,10.90
2022-08-28T01:59:33.585Z,11.10
2022-08-28T02:00:33.581Z,12.50
2022-08-28T02:01:33.647Z,11.20
2022-08-28T02:02:33.566Z,9.90
2022-08-28T02:03:33.556Z,9.00
2022-08-28T02:04:33.576Z,9.50
2022-08-28T02:05:33.545Z,9.80
2022-08-28T02:06:33.536Z,11.40
2022-08-28T02:07:33.529Z,9.60
2022-08-28T02:08:33.522Z,9.90
2022-08-28T02:09:33.514Z,12.50
2022-08-28T02:10:33.509Z,10.90
2022-08-28T02:11:33.499Z,10.30
2022-08-28T02:12:33.493Z,11.00
2022-08-28T02:13:33.486Z,11.70
2022-08-28T02:14:33.480Z,11.10
2022-08-28T02:15:33.531Z,10.00
2022-08-28T02:16:33.465Z,11.10
2022-08-28T02:17:33.457Z,14.20
2022-08-28T02:18:33.456Z,10.90
2022-08-28T02:19:33.441Z,12.30
2022-08-28T02:20:33.436Z,10.70
2022-08-28T02:21:33.429Z,12.20
2022-08-28T02:22:33.422Z,11.60
2022-08-28T02:23:33.413Z,11.60
2022-08-28T02:24:33.407Z,13.00
2022-08-28T02:25:33.400Z,9.60
2022-08-28T02:26:33.393Z,12.10
2022-08-28T02:27:33.386Z,10.50
2022-08-28T02:28:33.380Z,9.70
2022-08-28T02:29:33.372Z,10.50
2022-08-28T02:30:33.491Z,10.60
2022-08-28T02:31:33.355Z,11.80
2022-08-28T02:32:33.352Z,14.10
2022-08-28T02:33:33.342Z,12.10
2022-08-28T02:34:33.339Z,12.50
2022-08-28T02:35:33.329Z,11.30
2022-08-28T02:36:33.322Z,10.90
2022-08-28T02:37:33.314Z,12.20
2022-08-28T02:38:33.308Z,11.90
2022-08-28T02:39:33.299Z,10.60
2022-08-28T02:40:33.401Z,10.50
2022-08-28T02:41:33.286Z,10.00
2022-08-28T02:42:33.278Z,10.60
2022-08-28T02:43:33.271Z,10.90
2022-08-28T02:44:33.268Z,11.90
2022-08-28T02:45:33.257Z,10.80
2022-08-28T02:46:33.392Z,13.10
2022-08-28T02:47:33.245Z,11.50
2022-08-28T02:48:33.237Z,10.90
2022-08-28T02:49:35.527Z,12.60
2022-08-28T02:50:33.222Z,16.20
2022-08-28T02:51:33.214Z,11.30
2022-08-28T02:52:33.207Z,12.00
2022-08-28T02:53:33.212Z,11.90
2022-08-28T02:54:33.194Z,10.70
2022-08-28T02:55:34.308Z,10.10
2022-08-28T02:56:33.180Z,10.00
2022-08-28T02:57:33.172Z,11.30
2022-08-28T02:58:33.165Z,12.70
2022-08-28T02:59:33.156Z,9.90
2022-08-28T03:00:33.153Z,11.10
2022-08-28T03:01:33.197Z,14.50
2022-08-28T03:02:33.191Z,10.80
2022-08-28T03:03:33.131Z,11.80
2022-08-28T03:04:33.121Z,14.00
2022-08-28T03:05:33.112Z,13.00
2022-08-28T03:06:33.125Z,13.10
2022-08-28T03:07:33.098Z,11.70
2022-08-28T03:08:33.094Z,11.40
2022-08-28T03:09:33.083Z,11.40
2022-08-28T03:10:33.078Z,10.00
2022-08-28T03:11:33.070Z,11.40
2022-08-28T03:12:33.064Z,13.60
2022-08-28T03:13:33.058Z,11.40
2022-08-28T03:14:33.050Z,11.20
2022-08-28T03:15:33.039Z,11.70
2022-08-28T03:16:33.065Z,13.90
2022-08-28T03:17:33.079Z,12.90
2022-08-28T03:18:33.043Z,11.60
2022-08-28T03:19:33.011Z,16.00
2022-08-28T03:20:33.007Z,10.70
2022-08-28T03:21:32.996Z,14.10
2022-08-28T03:22:32.992Z,11.50
2022-08-28T03:23:32.982Z,15.10
2022-08-28T03:24:32.977Z,12.80
2022-08-28T03:25:32.968Z,14.30
2022-08-28T03:26:32.965Z,12.80
2022-08-28T03:27:32.954Z,15.30
2022-08-28T03:28:32.957Z,12.80
2022-08-28T03:29:32.940Z,17.10
2022-08-28T03:30:32.965Z,13.00
2022-08-28T03:31:33.024Z,17.30
2022-08-28T03:32:32.920Z,14.20
2022-08-28T03:33:32.910Z,13.90
2022-08-28T03:34:32.909Z,13.60
2022-08-28T03:35:32.895Z,12.10
2022-08-28T03:36:32.890Z,11.70
2022-08-28T03:37:32.883Z,14.20
2022-08-28T03:38:32.874Z,15.10
2022-08-28T03:39:32.865Z,16.20
2022-08-28T03:40:32.891Z,15.50
2022-08-28T03:41:32.853Z,13.60
2022-08-28T03:42:32.846Z,15.10
2022-08-28T03:43:32.837Z,14.50
2022-08-28T03:44:32.835Z,14.30
2022-08-28T03:45:32.907Z,12.10
2022-08-28T03:46:32.878Z,15.00
2022-08-28T03:47:32.810Z,13.60
2022-08-28T03:48:32.818Z,14.40
2022-08-28T03:49:32.803Z,15.20
2022-08-28T03:50:32.789Z,14.30
2022-08-28T03:51:32.780Z,12.60
2022-08-28T03:52:32.788Z,15.20
2022-08-28T03:53:32.764Z,12.90
2022-08-28T03:54:32.760Z,15.50
2022-08-28T03:55:32.749Z,14.60
2022-08-28T03:56:32.743Z,14.80
2022-08-28T03:57:32.738Z,15.20
2022-08-28T03:58:32.729Z,15.30
2022-08-28T03:59:33.566Z,15.10
2022-08-28T04:00:32.715Z,13.30
2022-08-28T04:01:32.746Z,15.30
2022-08-28T04:02:32.711Z,15.30
2022-08-28T04:03:32.726Z,15.10
2022-08-28T04:04:32.686Z,14.90
2022-08-28T04:05:32.678Z,16.00
2022-08-28T04:06:32.684Z,14.80
2022-08-28T04:07:32.664Z,15.90
2022-08-28T04:08:32.660Z,13.70
2022-08-28T04:09:32.649Z,15.50
2022-08-28T04:10:32.646Z,15.20
2022-08-28T04:11:32.634Z,21.40
2022-08-28T04:12:32.845Z,14.90
2022-08-28T04:13:32.622Z,15.30
2022-08-28T04:14:32.616Z,14.10
2022-08-28T04:15:32.608Z,14.80
2022-08-28T04:16:32.646Z,17.50
2022-08-28T04:17:32.592Z,12.20
2022-08-28T04:18:32.587Z,13.90
2022-08-28T04:19:32.578Z,14.90
2022-08-28T04:20:32.573Z,14.80
2022-08-28T04:21:32.563Z,13.30
2022-08-28T04:22:32.558Z,13.90
2022-08-28T04:23:32.548Z,14.50
2022-08-28T04:24:32.546Z,14.00
2022-08-28T04:25:32.535Z,13.20
2022-08-28T04:26:32.530Z,15.90
2022-08-28T04:27:32.520Z,12.80
2022-08-28T04:28:32.887Z,14.70
2022-08-28T04:29:32.508Z,11.30
2022-08-28T04:30:32.500Z,13.80
2022-08-28T04:31:32.936Z,13.90
2022-08-28T04:32:32.487Z,16.20
2022-08-28T04:33:32.578Z,13.70
2022-08-28T04:34:32.473Z,14.00
2022-08-28T04:35:32.464Z,15.00
2022-08-28T04:36:32.460Z,13.10
2022-08-28T04:37:32.451Z,13.00
2022-08-28T04:38:32.547Z,11.80
2022-08-28T04:39:32.437Z,13.30
2022-08-28T04:40:32.453Z,12.90
2022-08-28T04:41:32.422Z,15.40
2022-08-28T04:42:32.416Z,13.50
2022-08-28T04:43:32.411Z,12.70
2022-08-28T04:44:32.406Z,13.30
2022-08-28T04:45:32.464Z,12.30
2022-08-28T04:46:32.389Z,16.20
2022-08-28T04:47:32.381Z,13.70
2022-08-28T04:48:32.374Z,14.90
2022-08-28T04:49:32.366Z,15.50
2022-08-28T04:50:32.360Z,14.80
2022-08-28T04:51:32.352Z,14.30
2022-08-28T04:52:32.349Z,14.70
2022-08-28T04:53:32.339Z,14.50
2022-08-28T04:54:32.334Z,15.50
2022-08-28T04:55:53.748Z,17.60
2022-08-28T04:56:32.320Z,16.70
2022-08-28T04:57:36.263Z,18.10
2022-08-28T04:58:32.304Z,14.50
2022-08-28T04:59:32.296Z,16.40
2022-08-28T05:00:32.292Z,14.60
2022-08-28T05:01:32.360Z,14.50
2022-08-28T05:02:32.351Z,13.40
2022-08-28T05:03:32.268Z,14.00
2022-08-28T05:04:32.264Z,14.20
2022-08-28T05:05:32.255Z,14.50
2022-08-28T05:06:32.249Z,12.90
2022-08-28T05:07:32.240Z,14.80
2022-08-28T05:08:32.235Z,13.90
2022-08-28T05:09:32.228Z,14.40
2022-08-28T05:10:32.221Z,14.80
2022-08-28T05:12:32.205Z,16.00
2022-08-28T05:13:32.201Z,13.30
2022-08-28T05:14:32.190Z,13.10
2022-08-28T05:15:32.185Z,16.70
2022-08-28T05:16:32.270Z,12.90
2022-08-28T05:17:32.284Z,18.10
2022-08-28T05:18:32.166Z,13.20
2022-08-28T05:19:32.206Z,15.80
2022-08-28T05:20:32.152Z,12.50
2022-08-28T05:21:32.143Z,17.60
2022-08-28T05:22:32.137Z,13.40
2022-08-28T05:23:32.129Z,15.60
2022-08-28T05:24:32.124Z,14.40
2022-08-28T05:25:32.116Z,16.40
2022-08-28T05:26:32.109Z,14.50
2022-08-28T05:27:32.099Z,15.90
2022-08-28T05:28:32.095Z,13.50
2022-08-28T05:29:32.087Z,13.30
2022-08-28T05:30:32.081Z,17.20
2022-08-28T05:31:32.150Z,13.40
2022-08-28T05:32:32.067Z,17.40
2022-08-28T05:33:32.059Z,13.40
2022-08-28T05:34:32.102Z,13.40
2022-08-28T05:35:32.046Z,13.80
2022-08-28T05:36:32.441Z,14.30
2022-08-28T05:37:32.031Z,15.50
2022-08-28T05:38:32.034Z,14.00
2022-08-28T05:39:32.117Z,14.40
2022-08-28T05:40:32.177Z,16.40
2022-08-28T05:41:32.005Z,15.10
2022-08-28T05:42:35.878Z,14.90
2022-08-28T05:43:31.993Z,15.10
2022-08-28T05:44:31.988Z,15.20
2022-08-28T05:45:32.029Z,14.70
2022-08-28T05:46:31.978Z,15.10
2022-08-28T05:47:31.961Z,13.40
2022-08-28T05:48:32.949Z,14.20
2022-08-28T05:49:31.951Z,16.50
2022-08-28T05:50:31.959Z,14.40
2022-08-28T05:51:31.934Z,15.00
2022-08-28T05:52:31.933Z,13.80
2022-08-28T05:53:31.922Z,14.20
2022-08-28T05:54:31.917Z,15.10
2022-08-28T05:55:31.909Z,17.10
2022-08-28T05:56:31.904Z,17.40
2022-08-28T05:57:31.894Z,15.00
2022-08-28T05:58:31.892Z,19.60
2022-08-28T05:59:31.881Z,15.40
2022-08-28T06:00:31.876Z,15.90
2022-08-28T06:01:31.967Z,16.20
2022-08-28T06:02:31.863Z,15.50
2022-08-28T06:03:31.854Z,14.60
2022-08-28T06:04:31.894Z,18.10
2022-08-28T06:05:31.841Z,16.10
2022-08-28T06:06:31.835Z,14.90
2022-08-28T06:07:31.826Z,15.90
2022-08-28T06:08:31.820Z,15.10
2022-08-28T06:09:31.813Z,17.30
2022-08-28T06:10:31.808Z,16.50
2022-08-28T06:11:31.799Z,17.00
2022-08-28T06:12:31.795Z,15.20
2022-08-28T06:13:31.784Z,14.40
2022-08-28T06:14:31.778Z,15.70
2022-08-28T06:15:31.771Z,15.10
2022-08-28T06:16:31.935Z,15.30
2022-08-28T06:17:31.758Z,14.30
2022-08-28T06:18:31.767Z,16.30
2022-08-28T06:19:31.746Z,19.40
2022-08-28T06:20:31.738Z,17.40
2022-08-28T06:21:31.737Z,15.60
2022-08-28T06:22:31.724Z,15.40
2022-08-28T06:23:31.716Z,16.50
2022-08-28T06:24:31.712Z,14.30
2022-08-28T06:25:31.703Z,14.50
2022-08-28T06:26:31.699Z,16.40
2022-08-28T06:27:31.689Z,16.30
2022-08-28T06:28:31.684Z,16.00
2022-08-28T06:29:31.675Z,12.90
2022-08-28T06:30:31.669Z,15.40
2022-08-28T06:31:33.415Z,15.80
2022-08-28T06:32:31.706Z,16.00
2022-08-28T06:33:31.648Z,15.10
2022-08-28T06:35:31.637Z,14.00
2022-08-28T06:36:31.625Z,15.00
2022-08-28T06:37:31.621Z,17.20
2022-08-28T06:38:31.611Z,16.00
2022-08-28T06:39:31.607Z,17.70
2022-08-28T06:40:31.673Z,14.50
2022-08-28T06:41:31.593Z,14.70
2022-08-28T06:42:31.584Z,15.00
2022-08-28T06:43:31.578Z,13.20
2022-08-28T06:44:31.570Z,13.50
2022-08-28T06:45:31.592Z,13.00
2022-08-28T06:46:31.560Z,12.30
2022-08-28T06:47:31.552Z,13.20
2022-08-28T06:48:31.545Z,13.80
2022-08-28T06:49:31.539Z,12.20
2022-08-28T06:50:31.530Z,12.90
2022-08-28T06:51:31.531Z,13.00
2022-08-28T06:52:31.516Z,11.70
2022-08-28T06:53:31.527Z,16.10
2022-08-28T06:54:31.500Z,15.20
2022-08-28T06:55:31.598Z,13.80
2022-08-28T06:56:31.489Z,13.30
2022-08-28T06:57:31.485Z,10.00
2022-08-28T06:58:31.474Z,14.20
2022-08-28T06:59:31.469Z,12.60
2022-08-28T07:00:31.462Z,11.10
2022-08-28T07:01:31.532Z,11.60
2022-08-28T07:02:31.493Z,13.90
2022-08-28T07:03:31.442Z,12.10
2022-08-28T07:04:31.434Z,12.10
2022-08-28T07:05:31.428Z,13.80
2022-08-28T07:06:31.420Z,11.50
2022-08-28T07:07:32.748Z,14.00
2022-08-28T07:08:31.406Z,14.00
2022-08-28T07:09:31.400Z,14.30
2022-08-28T07:10:31.390Z,12.20
2022-08-28T07:11:31.402Z,11.60
2022-08-28T07:12:31.377Z,11.70
2022-08-28T07:13:33.876Z,14.00
2022-08-28T07:14:31.363Z,12.40
2022-08-28T07:15:31.400Z,13.50
2022-08-28T07:16:31.350Z,13.10
2022-08-28T07:17:31.347Z,15.50
2022-08-28T07:18:31.336Z,13.20
2022-08-28T07:19:31.335Z,11.80
2022-08-28T07:20:31.324Z,12.60
2022-08-28T07:21:31.320Z,13.00
2022-08-28T07:22:31.311Z,11.30
2022-08-28T07:23:31.307Z,13.10
2022-08-28T07:24:31.297Z,12.10
2022-08-28T07:25:31.293Z,12.80
2022-08-28T07:26:31.284Z,12.60
2022-08-28T07:27:31.278Z,12.40
2022-08-28T07:28:31.270Z,14.00
2022-08-28T07:29:31.264Z,15.00
2022-08-28T07:30:31.271Z,13.80
2022-08-28T07:31:31.308Z,12.40
2022-08-28T07:32:31.244Z,11.60
2022-08-28T07:33:31.238Z,13.50
2022-08-28T07:34:31.241Z,12.30
2022-08-28T07:35:31.225Z,11.40
2022-08-28T07:36:31.217Z,11.90
2022-08-28T07:37:31.212Z,11.90
2022-08-28T07:38:31.203Z,13.10
2022-08-28T07:39:31.198Z,12.30
2022-08-28T07:40:31.230Z,14.50
2022-08-28T07:41:31.186Z,15.60
2022-08-28T07:42:35.461Z,12.30
2022-08-28T07:43:31.174Z,11.50
2022-08-28T07:44:31.165Z,12.60
2022-08-28T07:45:31.245Z,14.60
2022-08-28T07:46:31.150Z,13.50
2022-08-28T07:47:31.196Z,11.80
2022-08-28T07:48:31.139Z,12.70
2022-08-28T07:49:31.134Z,11.80
2022-08-28T07:50:31.123Z,12.80
2022-08-28T07:51:31.120Z,11.00
2022-08-28T07:52:31.113Z,12.70
2022-08-28T07:53:35.753Z,13.60
2022-08-28T07:54:31.100Z,12.70
2022-08-28T07:55:31.096Z,12.60
2022-08-28T07:56:31.087Z,13.10
2022-08-28T07:57:31.082Z,11.70
2022-08-28T07:58:31.174Z,12.10
2022-08-28T07:59:36.975Z,13.00
2022-08-28T08:00:31.162Z,11.70
2022-08-28T08:01:31.122Z,14.20
2022-08-28T08:02:31.050Z,14.30
2022-08-28T08:03:31.097Z,13.00
2022-08-28T08:04:31.038Z,11.70
2022-08-28T08:05:31.032Z,13.50
2022-08-28T08:06:31.027Z,10.50
2022-08-28T08:07:31.021Z,11.60
2022-08-28T08:08:31.012Z,13.20
2022-08-28T08:09:31.009Z,13.00
2022-08-28T08:10:34.180Z,10.60
2022-08-28T08:11:32.613Z,14.80
2022-08-28T08:12:30.989Z,12.30
2022-08-28T08:13:31.002Z,11.60
2022-08-28T08:14:30.977Z,15.30
2022-08-28T08:15:31.495Z,13.20
2022-08-28T08:16:30.967Z,12.80
2022-08-28T08:17:30.965Z,15.70
2022-08-28T08:18:30.952Z,14.00
2022-08-28T08:19:30.948Z,12.00
2022-08-28T08:20:30.941Z,10.70
2022-08-28T08:21:30.939Z,11.70
2022-08-28T08:22:30.927Z,15.60
2022-08-28T08:23:30.924Z,13.90
2022-08-28T08:24:30.917Z,12.60
2022-08-28T08:25:30.912Z,12.40
2022-08-28T08:26:30.907Z,12.00
2022-08-28T08:27:30.901Z,14.20
2022-08-28T08:28:30.894Z,11.80
2022-08-28T08:29:30.904Z,12.30
2022-08-28T08:30:30.883Z,12.40
2022-08-28T08:31:30.904Z,12.70
2022-08-28T08:32:30.871Z,12.80
2022-08-28T08:33:30.886Z,11.70
2022-08-28T08:34:30.860Z,11.60
2022-08-28T08:35:30.855Z,11.00
2022-08-28T08:36:30.848Z,11.50
2022-08-28T08:37:30.845Z,14.60
2022-08-28T08:38:30.836Z,11.90
2022-08-28T08:39:31.768Z,12.40
2022-08-28T08:40:30.886Z,15.60
2022-08-28T08:41:30.822Z,13.70
2022-08-28T08:42:30.813Z,13.60
2022-08-28T08:43:30.810Z,13.80
2022-08-28T08:44:34.099Z,11.80
2022-08-28T08:45:30.801Z,11.40
2022-08-28T08:46:30.840Z,15.50
2022-08-28T08:47:30.788Z,11.30
2022-08-28T08:48:30.780Z,14.50
2022-08-28T08:49:30.777Z,11.00
2022-08-28T08:50:30.768Z,12.40
2022-08-28T08:51:30.766Z,12.90
2022-08-28T08:52:30.760Z,12.30
2022-08-28T08:53:30.755Z,11.80
2022-08-28T08:54:30.847Z,10.80
2022-08-28T08:55:30.745Z,9.70
2022-08-28T08:56:34.870Z,12.50
2022-08-28T08:57:30.738Z,11.50
2022-08-28T08:58:30.728Z,13.20
2022-08-28T08:59:30.726Z,10.90
2022-08-28T09:00:30.729Z,12.30
2022-08-28T09:01:30.760Z,10.60
2022-08-28T09:02:31.720Z,12.30
2022-08-28T09:03:30.755Z,11.60
2022-08-28T09:04:30.697Z,10.40
2022-08-28T09:05:30.696Z,11.80
2022-08-28T09:06:30.688Z,12.50
2022-08-28T09:07:30.687Z,11.60
2022-08-28T09:08:30.677Z,10.30
2022-08-28T09:09:30.675Z,10.20
2022-08-28T09:10:30.668Z,10.30
2022-08-28T09:11:30.666Z,9.70
2022-08-28T09:12:30.665Z,12.00
2022-08-28T09:13:30.657Z,10.80
2022-08-28T09:14:30.652Z,10.30
2022-08-28T09:15:30.732Z,9.60
2022-08-28T09:16:30.641Z,11.00
2022-08-28T09:17:30.639Z,10.20
2022-08-28T09:18:30.631Z,9.90
2022-08-28T09:19:30.630Z,10.10
2022-08-28T09:20:32.992Z,10.50
2022-08-28T09:21:30.621Z,11.30
2022-08-28T09:22:30.613Z,10.60
2022-08-28T09:23:30.610Z,10.00
2022-08-28T09:24:30.605Z,10.20
2022-08-28T09:25:30.603Z,11.80
2022-08-28T09:26:30.595Z,11.50
2022-08-28T09:27:30.593Z,9.20
2022-08-28T09:28:30.586Z,10.30
2022-08-28T09:29:30.586Z,9.60
2022-08-28T09:30:30.578Z,9.70
2022-08-28T09:31:30.623Z,8.80
2022-08-28T09:32:30.570Z,9.70
2022-08-28T09:33:30.569Z,12.30
2022-08-28T09:34:31.307Z,8.70
2022-08-28T09:36:30.553Z,9.20
2022-08-28T09:37:30.552Z,9.60
2022-08-28T09:38:30.546Z,8.70
2022-08-28T09:39:30.543Z,9.50
2022-08-28T09:40:30.642Z,7.50
2022-08-28T09:41:30.535Z,9.30
2022-08-28T09:42:30.531Z,9.30
2022-08-28T09:43:30.525Z,8.60
2022-08-28T09:44:30.520Z,8.70
2022-08-28T09:45:30.518Z,7.50
2022-08-28T09:46:30.593Z,10.80
2022-08-28T09:47:30.511Z,8.30
2022-08-28T09:48:30.504Z,9.50
2022-08-28T09:49:30.507Z,8.90
2022-08-28T09:50:30.495Z,8.70
2022-08-28T09:51:30.495Z,9.70
2022-08-28T09:52:30.487Z,10.20
2022-08-28T09:53:30.489Z,9.20
2022-08-28T09:54:30.479Z,8.80
2022-08-28T09:55:30.478Z,11.20
2022-08-28T09:56:30.473Z,10.10
2022-08-28T09:57:30.471Z,7.20
2022-08-28T09:58:30.514Z,9.40
2022-08-28T09:59:30.462Z,6.40
2022-08-28T10:00:30.456Z,8.90
2022-08-28T10:01:30.524Z,8.20
2022-08-28T10:02:30.450Z,8.80
2022-08-28T10:03:30.446Z,8.30
2022-08-28T10:04:30.511Z,7.90
2022-08-28T10:05:30.441Z,7.70
2022-08-28T10:06:30.432Z,8.90
2022-08-28T10:07:30.436Z,8.80
2022-08-28T10:08:30.426Z,11.30
2022-08-28T10:09:30.423Z,10.30
2022-08-28T10:10:30.416Z,8.00
2022-08-28T10:11:30.416Z,8.50
2022-08-28T10:12:30.408Z,7.10
2022-08-28T10:13:30.413Z,8.00
2022-08-28T10:14:30.401Z,9.10
2022-08-28T10:15:30.451Z,9.30
2022-08-28T10:16:30.393Z,7.30
2022-08-28T10:17:30.391Z,8.50
2022-08-28T10:18:30.385Z,8.90
2022-08-28T10:19:30.382Z,8.10
2022-08-28T10:20:30.377Z,6.40
2022-08-28T10:21:30.375Z,7.10
2022-08-28T10:22:30.369Z,9.60
2022-08-28T10:23:30.375Z,6.30
2022-08-28T10:24:30.362Z,7.20
2022-08-28T10:25:30.360Z,10.20
2022-08-28T10:26:30.353Z,8.10
2022-08-28T10:27:30.351Z,7.80
2022-08-28T10:28:30.348Z,6.10
2022-08-28T10:29:30.344Z,6.00
2022-08-28T10:30:30.350Z,7.60
2022-08-28T10:31:31.704Z,6.80
2022-08-28T10:32:30.331Z,8.40
2022-08-28T10:33:30.329Z,6.50
2022-08-28T10:34:30.322Z,8.30
2022-08-28T10:35:30.321Z,7.30
2022-08-28T10:36:33.563Z,8.40
2022-08-28T10:37:30.316Z,6.40
2022-08-28T10:38:30.307Z,5.80
2022-08-28T10:39:30.306Z,6.20
2022-08-28T10:40:30.379Z,6.60
2022-08-28T10:41:30.301Z,8.50
2022-08-28T10:42:36.245Z,7.00
2022-08-28T10:43:30.292Z,8.00
2022-08-28T10:44:30.286Z,6.60
2022-08-28T10:45:30.287Z,5.90
2022-08-28T10:46:30.463Z,7.20
2022-08-28T10:47:30.277Z,6.40
2022-08-28T10:48:30.272Z,7.90
2022-08-28T10:49:30.270Z,5.60
2022-08-28T10:50:30.266Z,7.70
2022-08-28T10:51:35.220Z,8.20
2022-08-28T10:52:30.259Z,7.40
2022-08-28T10:53:30.258Z,7.70
2022-08-28T10:54:30.253Z,6.70
2022-08-28T10:55:30.252Z,6.80
2022-08-28T10:56:30.247Z,8.60
2022-08-28T10:57:30.250Z,5.90
2022-08-28T10:58:30.240Z,6.60
2022-08-28T10:59:30.239Z,8.40
2022-08-28T11:00:30.285Z,5.80
2022-08-28T11:01:30.406Z,6.40
2022-08-28T11:02:30.312Z,6.60
2022-08-28T11:03:34.863Z,6.50
2022-08-28T11:04:30.226Z,6.50
2022-08-28T11:05:30.221Z,7.30
2022-08-28T11:06:30.214Z,7.40
2022-08-28T11:07:30.215Z,6.70
2022-08-28T11:08:30.210Z,5.70
2022-08-28T11:09:30.212Z,5.60
2022-08-28T11:10:30.206Z,7.80
2022-08-28T11:11:30.302Z,9.80
2022-08-28T11:12:30.197Z,5.90
2022-08-28T11:13:30.199Z,7.00
2022-08-28T11:14:30.190Z,5.40
2022-08-28T11:15:36.679Z,6.60
2022-08-28T11:16:30.457Z,7.40
2022-08-28T11:17:30.188Z,8.30
2022-08-28T11:18:30.181Z,6.60
2022-08-28T11:19:30.180Z,6.00
2022-08-28T11:20:30.177Z,5.00
2022-08-28T11:21:30.176Z,5.60
2022-08-28T11:22:30.171Z,6.20
2022-08-28T11:23:30.179Z,5.20
2022-08-28T11:24:30.167Z,5.40
2022-08-28T11:25:32.344Z,5.90
2022-08-28T11:26:30.165Z,7.40
2022-08-28T11:27:30.163Z,6.60
2022-08-28T11:28:30.158Z,5.70
2022-08-28T11:29:30.159Z,5.00
2022-08-28T11:30:30.199Z,6.00
2022-08-28T11:31:30.211Z,6.20
2022-08-28T11:32:30.150Z,6.50
2022-08-28T11:33:30.150Z,5.90
2022-08-28T11:34:30.145Z,6.00
2022-08-28T11:35:30.147Z,7.00
2022-08-28T11:36:30.143Z,6.70
2022-08-28T11:37:30.140Z,7.40
2022-08-28T11:38:30.137Z,7.80
2022-08-28T11:39:30.139Z,7.00
2022-08-28T11:40:30.228Z,7.20
2022-08-28T11:41:30.132Z,5.60
2022-08-28T11:42:30.127Z,8.80
2022-08-28T11:43:30.127Z,6.10
2022-08-28T11:44:30.122Z,6.90
2022-08-28T11:45:30.122Z,5.40
2022-08-28T11:46:30.199Z,6.40
2022-08-28T11:47:30.118Z,6.40
2022-08-28T11:48:30.113Z,5.90
2022-08-28T11:49:30.115Z,6.70
2022-08-28T11:50:30.109Z,6.30
2022-08-28T11:51:30.110Z,5.70
2022-08-28T11:52:30.104Z,5.70
2022-08-28T11:53:30.106Z,8.10
2022-08-28T11:54:30.101Z,6.90
2022-08-28T11:55:30.101Z,6.40
2022-08-28T11:56:31.825Z,5.40
2022-08-28T11:57:30.098Z,6.60
2022-08-28T11:58:30.098Z,6.60
2022-08-28T11:59:34.845Z,5.80
2022-08-28T12:00:30.088Z,5.00
2022-08-28T12:01:30.088Z,5.50
2022-08-28T12:02:30.125Z,5.60
2022-08-28T12:03:30.084Z,4.90
2022-08-28T12:04:30.144Z,5.90
2022-08-28T12:05:30.081Z,6.70
2022-08-28T12:06:30.076Z,5.50
2022-08-28T12:07:30.077Z,6.00
2022-08-28T12:08:30.076Z,5.80
2022-08-28T12:09:30.075Z,4.90
2022-08-28T12:10:30.068Z,6.00
2022-08-28T12:11:30.071Z,5.30
2022-08-28T12:12:30.067Z,5.60
2022-08-28T12:13:30.066Z,6.10
2022-08-28T12:14:30.064Z,5.30
2022-08-28T12:15:30.065Z,6.00
2022-08-28T12:16:30.172Z,6.90
2022-08-28T12:17:31.489Z,6.10
2022-08-28T12:18:30.061Z,5.20
2022-08-28T12:19:30.056Z,5.10
2022-08-28T12:20:30.053Z,5.00
2022-08-28T12:21:30.053Z,6.70
2022-08-28T12:22:30.099Z,4.50
2022-08-28T12:23:30.051Z,5.00
2022-08-28T12:24:30.048Z,6.80
2022-08-28T12:25:30.048Z,5.90
2022-08-28T12:26:30.057Z,5.00
2022-08-28T12:27:30.044Z,6.70
2022-08-28T12:28:30.042Z,5.10
2022-08-28T12:29:30.045Z,5.10
2022-08-28T12:30:30.066Z,5.60
2022-08-28T12:31:30.040Z,5.00
2022-08-28T12:32:30.043Z,6.30
2022-08-28T12:33:30.040Z,5.40
2022-08-28T12:34:30.033Z,5.10
2022-08-28T12:35:30.221Z,5.80
2022-08-28T12:36:30.031Z,4.90
2022-08-28T12:37:30.033Z,6.10
2022-08-28T12:38:30.079Z,6.50
2022-08-28T12:39:30.034Z,7.10
2022-08-28T12:40:30.095Z,6.30
2022-08-28T12:41:30.027Z,7.30
2022-08-28T12:42:30.025Z,5.40
2022-08-28T12:43:30.027Z,4.40
2022-08-28T12:44:30.022Z,4.70
2022-08-28T12:45:30.122Z,5.00
2022-08-28T12:46:30.088Z,5.20
2022-08-28T12:47:30.019Z,5.60
2022-08-28T12:48:30.017Z,4.80
2022-08-28T12:49:30.016Z,5.70
2022-08-28T12:50:30.016Z,5.30
2022-08-28T12:51:30.014Z,5.50
2022-08-28T12:52:30.011Z,6.20
2022-08-28T12:53:30.014Z,4.70
2022-08-28T12:54:30.010Z,6.10
2022-08-28T12:55:30.010Z,4.90
2022-08-28T12:56:30.008Z,4.20
2022-08-28T12:57:30.008Z,6.20
2022-08-28T12:58:30.010Z,4.40
2022-08-28T12:59:30.006Z,5.00
2022-08-28T13:00:30.003Z,5.20
2022-08-28T13:01:30.107Z,5.80
2022-08-28T13:02:30.080Z,6.00
2022-08-28T13:03:30.001Z,5.20
2022-08-28T13:04:29.998Z,4.30
2022-08-28T13:05:30.000Z,5.80